createdAt,value
2023-01-01T00:02:12.528Z,86.30
2023-01-01T00:05:54.308Z,86.00
2023-01-01T00:09:54.668Z,85.50
2023-01-01T00:13:38.761Z,85.10
2023-01-01T00:17:20.536Z,85.00
2023-01-01T00:21:07.528Z,85.00
2023-01-01T00:24:49.279Z,84.10
2023-01-01T00:28:31.927Z,84.70
2023-01-01T00:32:17.684Z,84.70
2023-01-01T00:36:24.338Z,84.50
2023-01-01T00:40:06.959Z,84.10
2023-01-01T00:43:48.745Z,84.70
2023-01-01T00:47:30.528Z,84.70
2023-01-01T00:51:12.415Z,84.30
2023-01-01T00:54:54.341Z,84.50
2023-01-01T00:58:36.165Z,83.90
2023-01-01T01:02:18.090Z,83.70
2023-01-01T01:06:02.852Z,84.00
2023-01-01T01:09:44.624Z,84.20
2023-01-01T01:13:26.310Z,84.00
2023-01-01T01:17:08.133Z,84.10
2023-01-01T01:20:51.851Z,83.90
2023-01-01T01:24:33.712Z,84.20
2023-01-01T01:28:15.688Z,84.00
2023-01-01T01:31:57.405Z,83.80
2023-01-01T01:35:39.137Z,83.50
2023-01-01T01:39:20.851Z,83.80
2023-01-01T01:43:02.531Z,83.80
2023-01-01T01:46:44.988Z,83.80
2023-01-01T01:50:30.937Z,84.00
2023-01-01T01:54:16.622Z,83.90
2023-01-01T01:57:58.538Z,84.10
2023-01-01T02:01:40.403Z,83.90
2023-01-01T02:05:23.033Z,84.30
2023-01-01T02:09:06.860Z,84.30
2023-01-01T02:12:48.656Z,84.20
2023-01-01T02:16:55.990Z,84.20
2023-01-01T02:21:01.220Z,84.10
2023-01-01T02:24:51.652Z,83.60
2023-01-01T02:28:56.653Z,83.90
2023-01-01T02:32:49.971Z,84.00
2023-01-01T02:36:33.885Z,84.00
2023-01-01T02:40:18.472Z,84.00
2023-01-01T02:47:40.995Z,84.10
2023-01-01T02:52:04.736Z,83.90
2023-01-01T02:55:49.481Z,83.50
2023-01-01T03:00:04.758Z,83.60
2023-01-01T03:04:01.282Z,83.60
2023-01-01T03:08:01.571Z,83.00
2023-01-01T03:11:57.717Z,83.90
2023-01-01T03:16:00.470Z,83.50
2023-01-01T03:19:43.436Z,83.40
2023-01-01T03:23:31.426Z,83.70
2023-01-01T03:27:21.372Z,83.80
2023-01-01T03:31:03.893Z,83.20
2023-01-01T03:34:52.846Z,83.60
2023-01-01T03:38:36.271Z,83.80
2023-01-01T03:42:27.027Z,83.60
2023-01-01T03:46:10.913Z,83.50
2023-01-01T03:49:52.759Z,83.80
2023-01-01T03:53:41.122Z,83.00
2023-01-01T03:57:34.933Z,82.40
2023-01-01T04:01:30.707Z,82.10
2023-01-01T04:05:13.635Z,81.10
2023-01-01T04:08:58.253Z,81.40
2023-01-01T04:12:39.986Z,81.40
2023-01-01T04:16:21.803Z,81.50
2023-01-01T04:20:04.124Z,81.70
2023-01-01T04:23:45.854Z,81.60
2023-01-01T04:27:27.594Z,81.60
2023-01-01T04:31:11.617Z,81.40
2023-01-01T04:34:53.323Z,81.60
2023-01-01T04:38:36.569Z,81.60
2023-01-01T04:42:18.878Z,81.70
2023-01-01T04:46:02.898Z,81.80
2023-01-01T04:49:44.629Z,81.90
2023-01-01T04:53:29.026Z,81.80
2023-01-01T04:57:11.003Z,82.00
2023-01-01T05:00:52.784Z,82.00
2023-01-01T05:04:34.556Z,82.00
2023-01-01T05:08:16.272Z,82.10
2023-01-01T05:11:57.992Z,82.20
2023-01-01T05:15:39.701Z,82.30
2023-01-01T05:19:21.450Z,82.60
2023-01-01T05:23:03.237Z,82.70
2023-01-01T05:26:45.499Z,82.90
2023-01-01T05:30:27.313Z,83.20
2023-01-01T05:37:51.563Z,83.40
2023-01-01T05:41:36.189Z,83.40
2023-01-01T05:45:17.996Z,83.30
2023-01-01T05:49:00.249Z,83.30
2023-01-01T05:52:42.019Z,83.30
2023-01-01T05:56:24.246Z,83.20
2023-01-01T06:00:06.814Z,83.30
2023-01-01T06:03:49.156Z,83.20
2023-01-01T06:07:30.981Z,83.10
2023-01-01T06:11:12.847Z,82.80
2023-01-01T06:14:54.565Z,81.60
2023-01-01T06:18:36.454Z,80.70
2023-01-01T06:22:18.195Z,80.70
2023-01-01T06:26:12.957Z,80.80
2023-01-01T06:29:54.757Z,80.70
2023-01-01T06:33:37.319Z,80.80
2023-01-01T06:37:19.035Z,80.90
2023-01-01T06:41:10.270Z,81.10
2023-01-01T06:44:51.980Z,81.10
2023-01-01T06:48:36.133Z,81.20
2023-01-01T06:52:17.837Z,81.20
2023-01-01T06:55:59.644Z,81.30
2023-01-01T06:59:41.358Z,81.30
2023-01-01T07:03:23.125Z,81.20
2023-01-01T07:07:05.235Z,81.40
2023-01-01T07:10:46.929Z,81.50
2023-01-01T07:14:28.625Z,81.40
2023-01-01T07:18:10.636Z,81.30
2023-01-01T07:21:54.253Z,81.40
2023-01-01T07:25:35.971Z,81.40
2023-01-01T07:29:17.858Z,81.40
2023-01-01T07:32:59.575Z,81.40
2023-01-01T07:36:41.905Z,81.50
2023-01-01T07:40:23.641Z,81.50
2023-01-01T07:44:05.562Z,81.60
2023-01-01T07:47:53.701Z,81.70
2023-01-01T07:51:35.346Z,81.80
2023-01-01T07:55:18.578Z,81.80
2023-01-01T07:59:00.295Z,82.00
2023-01-01T08:02:42.151Z,82.20
2023-01-01T08:06:23.926Z,82.30
2023-01-01T08:10:07.020Z,82.40
2023-01-01T08:13:48.740Z,82.50
2023-01-01T08:17:30.459Z,82.50
2023-01-01T08:21:12.216Z,82.60
2023-01-01T08:24:53.952Z,82.70
2023-01-01T08:28:36.125Z,82.70
2023-01-01T08:32:17.947Z,82.80
2023-01-01T08:36:00.312Z,82.80
2023-01-01T08:39:42.066Z,82.80
2023-01-01T08:43:23.776Z,83.00
2023-01-01T08:47:05.559Z,83.00
2023-01-01T08:51:00.180Z,83.10
2023-01-01T08:54:42.064Z,83.10
2023-01-01T08:58:23.963Z,83.20
2023-01-01T09:02:06.715Z,83.40
2023-01-01T09:05:48.645Z,83.50
2023-01-01T09:09:31.833Z,83.60
2023-01-01T09:13:16.172Z,83.70
2023-01-01T09:16:58.231Z,83.80
2023-01-01T09:20:40.307Z,83.80
2023-01-01T09:24:22.305Z,83.90
2023-01-01T09:28:06.804Z,84.10
2023-01-01T09:31:49.291Z,83.90
2023-01-01T09:35:31.520Z,83.90
2023-01-01T09:39:15.484Z,84.00
2023-01-01T09:43:42.022Z,84.10
2023-01-01T09:47:43.913Z,84.40
2023-01-01T09:51:30.525Z,84.10
2023-01-01T09:55:22.483Z,83.90
2023-01-01T09:59:04.278Z,84.00
2023-01-01T10:02:53.881Z,84.20
2023-01-01T10:06:44.097Z,84.10
2023-01-01T10:10:46.178Z,84.20
2023-01-01T10:14:38.627Z,84.10
2023-01-01T10:18:25.317Z,84.10
2023-01-01T10:22:16.919Z,84.10
2023-01-01T10:26:03.415Z,84.10
2023-01-01T10:29:50.004Z,84.00
2023-01-01T10:33:31.807Z,84.00
2023-01-01T10:37:15.197Z,83.90
2023-01-01T10:41:17.082Z,83.80
2023-01-01T10:45:05.345Z,83.30
2023-01-01T10:49:10.875Z,83.10
2023-01-01T10:52:56.905Z,82.40
2023-01-01T10:56:41.401Z,82.70
2023-01-01T11:00:27.817Z,82.90
2023-01-01T11:04:15.519Z,81.50
2023-01-01T11:07:57.255Z,82.00
2023-01-01T11:11:43.798Z,81.80
2023-01-01T11:15:39.071Z,81.70
2023-01-01T11:19:36.802Z,81.20
2023-01-01T11:23:25.995Z,81.10
2023-01-01T11:27:25.203Z,82.10
2023-01-01T11:31:26.917Z,82.10
2023-01-01T11:35:21.556Z,81.90
2023-01-01T11:39:23.404Z,81.90
2023-01-01T11:43:07.307Z,82.10
2023-01-01T11:46:49.165Z,81.80
2023-01-01T11:50:34.679Z,82.00
2023-01-01T11:54:28.239Z,82.00
2023-01-01T11:58:19.774Z,81.90
2023-01-01T12:02:10.070Z,82.10
2023-01-01T12:06:17.045Z,82.20
2023-01-01T12:10:31.525Z,82.10
2023-01-01T12:14:55.774Z,81.90
2023-01-01T12:19:06.866Z,81.90
2023-01-01T12:22:49.067Z,82.20
2023-01-01T12:26:55.962Z,82.10
2023-01-01T12:30:47.942Z,82.00
2023-01-01T12:34:53.083Z,82.20
2023-01-01T12:39:19.097Z,82.20
2023-01-01T12:43:11.036Z,82.10
2023-01-01T12:47:30.521Z,82.20
2023-01-01T12:51:47.300Z,81.80
2023-01-01T12:56:03.005Z,82.10
2023-01-01T12:59:49.770Z,82.10
2023-01-01T13:03:37.802Z,82.20
2023-01-01T13:07:30.887Z,82.30
2023-01-01T13:11:13.865Z,82.20
2023-01-01T13:14:55.598Z,82.30
2023-01-01T13:18:38.352Z,82.40
2023-01-01T13:22:25.952Z,82.60
2023-01-01T13:26:22.932Z,82.70
2023-01-01T13:30:41.591Z,82.80
2023-01-01T13:34:32.272Z,82.90
2023-01-01T13:38:44.735Z,82.80
2023-01-01T13:43:04.729Z,82.90
2023-01-01T13:47:09.264Z,82.90
2023-01-01T13:52:03.023Z,82.80
2023-01-01T13:55:59.183Z,82.80
2023-01-01T13:59:46.913Z,82.90
2023-01-01T14:03:31.199Z,82.80
2023-01-01T14:07:49.798Z,82.90
2023-01-01T14:11:29.621Z,82.90
2023-01-01T14:15:25.394Z,82.90
2023-01-01T14:19:14.554Z,82.90
2023-01-01T14:23:02.063Z,82.80
2023-01-01T14:26:44.772Z,82.90
2023-01-01T14:30:29.451Z,82.90
2023-01-01T14:34:40.887Z,82.80
2023-01-01T14:38:25.134Z,82.70
2023-01-01T14:42:09.277Z,82.80
2023-01-01T14:45:53.196Z,82.90
2023-01-01T14:49:38.264Z,82.90
2023-01-01T14:53:28.840Z,82.80
2023-01-01T14:57:16.215Z,82.90
2023-01-01T15:01:23.255Z,82.90
2023-01-01T15:05:33.277Z,82.70
2023-01-01T15:09:17.165Z,82.90
2023-01-01T15:12:59.279Z,82.90
2023-01-01T15:16:41.042Z,82.90
2023-01-01T15:20:25.764Z,82.90
2023-01-01T15:24:23.877Z,82.90
2023-01-01T15:28:05.691Z,82.80
2023-01-01T15:31:53.598Z,82.80
2023-01-01T15:35:38.068Z,82.80
2023-01-01T15:39:20.921Z,82.10
2023-01-01T15:43:02.586Z,81.80
2023-01-01T15:46:49.991Z,81.60
2023-01-01T15:50:40.207Z,81.00
2023-01-01T15:54:22.105Z,81.00
2023-01-01T15:58:04.423Z,81.30
2023-01-01T16:01:46.467Z,81.40
2023-01-01T16:05:29.693Z,81.10
2023-01-01T16:09:13.470Z,81.00
2023-01-01T16:12:55.232Z,81.30
2023-01-01T16:16:38.643Z,81.40
2023-01-01T16:20:22.506Z,81.70
2023-01-01T16:24:04.507Z,81.90
2023-01-01T16:27:46.783Z,82.00
2023-01-01T16:31:28.749Z,82.10
2023-01-01T16:35:13.998Z,82.20
2023-01-01T16:38:56.788Z,82.30
2023-01-01T16:42:39.320Z,82.40
2023-01-01T16:46:21.071Z,82.50
2023-01-01T16:50:02.936Z,82.50
2023-01-01T16:53:44.848Z,82.70
2023-01-01T16:57:26.550Z,82.70
2023-01-01T17:01:08.473Z,82.70
2023-01-01T17:04:50.306Z,82.80
2023-01-01T17:08:32.628Z,82.90
2023-01-01T17:12:14.386Z,82.90
2023-01-01T17:15:57.823Z,82.90
2023-01-01T17:19:39.608Z,82.90
2023-01-01T17:23:21.516Z,82.80
2023-01-01T17:27:03.296Z,82.80
2023-01-01T17:30:45.082Z,82.80
2023-01-01T17:34:26.943Z,82.80
2023-01-01T17:38:08.695Z,82.80
2023-01-01T17:41:50.473Z,82.80
2023-01-01T17:45:32.261Z,82.80
2023-01-01T17:49:14.100Z,82.80
2023-01-01T17:52:55.882Z,82.70
2023-01-01T17:56:37.664Z,82.80
2023-01-01T18:00:19.472Z,82.90
2023-01-01T18:04:06.294Z,82.90
2023-01-01T18:07:48.024Z,82.90
2023-01-01T18:11:30.915Z,83.00
2023-01-01T18:15:12.769Z,83.00
2023-01-01T18:18:54.707Z,83.00
2023-01-01T18:22:42.745Z,83.10
2023-01-01T18:26:27.528Z,83.10
2023-01-01T18:30:09.483Z,83.10
2023-01-01T18:33:52.923Z,83.20
2023-01-01T18:37:36.861Z,83.20
2023-01-01T18:41:30.516Z,83.20
2023-01-01T18:45:21.139Z,83.30
2023-01-01T18:49:09.837Z,83.40
2023-01-01T18:53:20.241Z,83.30
2023-01-01T18:57:07.986Z,83.30
2023-01-01T19:00:50.623Z,83.30
2023-01-01T19:04:32.495Z,83.30
2023-01-01T19:08:17.566Z,83.30
2023-01-01T19:12:01.203Z,83.30
2023-01-01T19:16:11.949Z,83.30
2023-01-01T19:19:54.391Z,83.50
2023-01-01T19:23:39.435Z,83.50
2023-01-01T19:27:24.040Z,83.50
2023-01-01T19:31:06.476Z,83.50
2023-01-01T19:34:48.285Z,83.50
2023-01-01T19:38:30.101Z,83.60
2023-01-01T19:42:12.269Z,83.60
2023-01-01T19:45:54.071Z,83.60
2023-01-01T19:49:35.798Z,83.60
2023-01-01T19:53:17.899Z,83.60
2023-01-01T19:56:59.674Z,83.60
2023-01-01T20:00:41.507Z,83.70
2023-01-01T20:04:23.375Z,83.80
2023-01-01T20:08:05.285Z,83.90
2023-01-01T20:11:50.613Z,84.00
2023-01-01T20:15:32.642Z,84.10
2023-01-01T20:19:14.389Z,84.10
2023-01-01T20:22:56.174Z,84.10
2023-01-01T20:26:37.948Z,84.20
2023-01-01T20:30:19.735Z,84.30
2023-01-01T20:34:01.834Z,84.30
2023-01-01T20:37:43.667Z,84.30
2023-01-01T20:41:25.559Z,84.40
2023-01-01T20:45:08.249Z,84.40
2023-01-01T20:48:49.983Z,84.40
2023-01-01T20:52:31.719Z,84.40
2023-01-01T20:56:13.507Z,84.50
2023-01-01T20:59:55.349Z,84.50
2023-01-01T21:03:37.071Z,84.40
2023-01-01T21:07:18.930Z,84.60
2023-01-01T21:11:00.812Z,84.50
2023-01-01T21:14:42.854Z,84.60
2023-01-01T21:18:24.792Z,84.60
2023-01-01T21:22:10.593Z,84.60
2023-01-01T21:25:52.581Z,84.60
2023-01-01T21:29:35.940Z,84.60
2023-01-01T21:33:28.364Z,84.60
2023-01-01T21:37:48.277Z,84.60
2023-01-01T21:41:30.202Z,84.80
2023-01-01T21:45:29.551Z,84.60
2023-01-01T21:49:36.500Z,84.70
2023-01-01T21:53:22.176Z,84.80
2023-01-01T21:57:22.982Z,84.60
2023-01-01T22:01:20.258Z,84.80
2023-01-01T22:05:30.834Z,84.80
2023-01-01T22:09:18.263Z,85.00
2023-01-01T22:13:00.790Z,84.60
2023-01-01T22:16:44.493Z,84.70
2023-01-01T22:20:26.661Z,84.70
2023-01-01T22:24:34.344Z,84.80
2023-01-01T22:28:30.907Z,84.90
2023-01-01T22:32:29.066Z,84.70
2023-01-01T22:36:28.909Z,84.80
2023-01-01T22:40:19.668Z,84.80
2023-01-01T22:44:03.837Z,84.80
2023-01-01T22:47:45.770Z,84.80
2023-01-01T22:51:37.359Z,84.80
2023-01-01T22:55:19.415Z,84.80
2023-01-01T22:59:01.226Z,84.90
2023-01-01T23:02:43.476Z,84.90
2023-01-01T23:06:25.674Z,84.90
2023-01-01T23:10:08.983Z,84.80
2023-01-01T23:14:10.059Z,84.80
2023-01-01T23:17:51.766Z,84.80
2023-01-01T23:21:34.905Z,84.90
2023-01-01T23:25:19.428Z,84.90
2023-01-01T23:29:02.394Z,84.90
2023-01-01T23:32:44.966Z,84.90
2023-01-01T23:36:27.938Z,84.90
2023-01-01T23:40:10.385Z,84.90
2023-01-01T23:43:52.161Z,84.90
2023-01-01T23:47:34.251Z,85.00
2023-01-01T23:51:17.324Z,85.00
2023-01-01T23:54:59.079Z,85.00
2023-01-01T23:58:40.836Z,85.00
